VOE1351 LEZL-LIPX
Flight info
| Callsign | VOE1351 |
|---|---|
| Flight time | 2h 10m |
| Altitude | 38000 |
| Route | BUDIT DCT ETURA DCT TOSTO DCT OLPOS DCT BEGOX DCT LASPO DCT SOPET DCT DIKUT DCT TORDU DCT LOTOS DCT EBROX DCT PEXOT DCT RODRA DCT BCN DCT SALON DCT AGENA DCT BODEQ DCT LUMAS DCT UNANA DCT STP DCT RAPED DCT PIGOS DCT EKSID DCT NOSTA DCT EGHIN DCT OTMUV DCT KALMO DCT EKPAL DCT OSBUL |
| Aircraft | A320/M-SDE3FGHIRWY/LB1 |
Departure
| Time | 2026-05-08 10:36 |
|---|---|
| Airport | Seville Airport (LEZL) |
Arrival
| Time | 2026-05-08 12:46 |
|---|---|
| Airport | Verona Villafranca Valerio Catullo Airport (LIPX) |
| Time | Latitude | Longitude | Altitude | Speed | Heading |
|---|---|---|---|---|---|
| 2026-05-08 10:13 | 37.42217 | -5.89951 | 94 ft | 0 kts | 315° |
| 2026-05-08 10:25 | 37.42203 | -5.89935 | 92 ft | 3 kts | 319° |
| 2026-05-08 10:25 | 37.42191 | -5.89922 | 94 ft | 3 kts | 325° |
| 2026-05-08 10:25 | 37.42171 | -5.89907 | 96 ft | 3 kts | 341° |
| 2026-05-08 10:26 | 37.42151 | -5.89903 | 94 ft | 3 kts | 24° |
| 2026-05-08 10:26 | 37.42144 | -5.89908 | 96 ft | 0 kts | 44° |
| 2026-05-08 10:28 | 37.42166 | -5.89881 | 94 ft | 11 kts | 44° |
| 2026-05-08 10:28 | 37.42232 | -5.89798 | 94 ft | 13 kts | 45° |
| 2026-05-08 10:28 | 37.42254 | -5.89708 | 95 ft | 11 kts | 121° |
| 2026-05-08 10:28 | 37.42186 | -5.89618 | 96 ft | 17 kts | 135° |
| 2026-05-08 10:29 | 37.42103 | -5.89511 | 98 ft | 17 kts | 134° |
| 2026-05-08 10:29 | 37.42016 | -5.89400 | 99 ft | 18 kts | 134° |
| 2026-05-08 10:29 | 37.41983 | -5.89246 | 101 ft | 22 kts | 89° |
| 2026-05-08 10:29 | 37.41983 | -5.89011 | 101 ft | 30 kts | 90° |
| 2026-05-08 10:30 | 37.41983 | -5.88748 | 103 ft | 30 kts | 89° |
| 2026-05-08 10:30 | 37.41985 | -5.88482 | 104 ft | 31 kts | 90° |
| 2026-05-08 10:30 | 37.41984 | -5.88214 | 106 ft | 31 kts | 90° |
| 2026-05-08 10:30 | 37.41982 | -5.87959 | 107 ft | 21 kts | 88° |
| 2026-05-08 10:31 | 37.41993 | -5.87774 | 108 ft | 22 kts | 92° |
| 2026-05-08 10:31 | 37.41989 | -5.87579 | 109 ft | 23 kts | 91° |
| 2026-05-08 10:31 | 37.41988 | -5.87435 | 112 ft | 0 kts | 89° |
| 2026-05-08 10:34 | 37.41989 | -5.87420 | 113 ft | 6 kts | 89° |
| 2026-05-08 10:34 | 37.41975 | -5.87338 | 113 ft | 12 kts | 124° |
| 2026-05-08 10:34 | 37.41918 | -5.87304 | 115 ft | 8 kts | 184° |
| 2026-05-08 10:35 | 37.41864 | -5.87353 | 114 ft | 13 kts | 232° |
| 2026-05-08 10:35 | 37.41816 | -5.87459 | 114 ft | 16 kts | 250° |
| 2026-05-08 10:35 | 37.41798 | -5.87706 | 113 ft | 55 kts | 269° |
| 2026-05-08 10:35 | 37.41795 | -5.88494 | 107 ft | 121 kts | 270° |
| 2026-05-08 10:36 | 37.41792 | -5.89780 | 159 ft | 166 kts | 269° |
| 2026-05-08 10:36 | 37.41792 | -5.91233 | 818 ft | 168 kts | 269° |
| 2026-05-08 10:36 | 37.41947 | -5.92701 | 1467 ft | 177 kts | 294° |
| 2026-05-08 10:36 | 37.42734 | -5.94003 | 1876 ft | 200 kts | 315° |
| 2026-05-08 10:37 | 37.43837 | -5.95249 | 2251 ft | 226 kts | 319° |
| 2026-05-08 10:37 | 37.45104 | -5.96590 | 2721 ft | 250 kts | 319° |
| 2026-05-08 10:37 | 37.46470 | -5.98051 | 3434 ft | 262 kts | 319° |
| 2026-05-08 10:37 | 37.47856 | -5.99576 | 4357 ft | 267 kts | 317° |
| 2026-05-08 10:38 | 37.49231 | -6.01128 | 5260 ft | 272 kts | 317° |
| 2026-05-08 10:38 | 37.50641 | -6.02752 | 6165 ft | 277 kts | 316° |
| 2026-05-08 10:38 | 37.52058 | -6.04409 | 7050 ft | 280 kts | 315° |
| 2026-05-08 10:38 | 37.53619 | -6.05907 | 7891 ft | 287 kts | 331° |
| 2026-05-08 10:39 | 37.55544 | -6.06677 | 8717 ft | 295 kts | 353° |
| 2026-05-08 10:39 | 37.57603 | -6.06519 | 9544 ft | 302 kts | 14° |
| 2026-05-08 10:39 | 37.59523 | -6.05422 | 10287 ft | 310 kts | 35° |
| 2026-05-08 10:39 | 37.61061 | -6.03410 | 10576 ft | 332 kts | 60° |
| 2026-05-08 10:40 | 37.61926 | -6.00509 | 10832 ft | 354 kts | 78° |
| 2026-05-08 10:40 | 37.62447 | -5.97862 | 11222 ft | 366 kts | 78° |
| 2026-05-08 10:40 | 37.63062 | -5.94716 | 11899 ft | 372 kts | 78° |
| 2026-05-08 10:40 | 37.63688 | -5.91533 | 12574 ft | 377 kts | 77° |
| 2026-05-08 10:41 | 37.64334 | -5.88302 | 13239 ft | 382 kts | 77° |
| 2026-05-08 10:41 | 37.64994 | -5.85030 | 13917 ft | 387 kts | 77° |
| 2026-05-08 10:41 | 37.65661 | -5.81722 | 14580 ft | 391 kts | 77° |
| 2026-05-08 10:41 | 37.66335 | -5.78383 | 15212 ft | 395 kts | 77° |
| 2026-05-08 10:42 | 37.67015 | -5.75003 | 15834 ft | 399 kts | 77° |
| 2026-05-08 10:42 | 37.67700 | -5.71587 | 16440 ft | 404 kts | 77° |
| 2026-05-08 10:42 | 37.68390 | -5.68129 | 17055 ft | 407 kts | 77° |
| 2026-05-08 10:42 | 37.69084 | -5.64648 | 17631 ft | 412 kts | 77° |
| 2026-05-08 10:43 | 37.69786 | -5.61118 | 18209 ft | 416 kts | 76° |
| 2026-05-08 10:43 | 37.70495 | -5.57556 | 18781 ft | 420 kts | 76° |
| 2026-05-08 10:43 | 37.71212 | -5.53961 | 19336 ft | 424 kts | 76° |
| 2026-05-08 10:43 | 37.71934 | -5.50337 | 19891 ft | 428 kts | 76° |
| 2026-05-08 10:44 | 37.72663 | -5.46678 | 20420 ft | 431 kts | 77° |
| 2026-05-08 10:44 | 37.73391 | -5.42990 | 20941 ft | 435 kts | 77° |
| 2026-05-08 10:44 | 37.74126 | -5.39261 | 21428 ft | 439 kts | 77° |
| 2026-05-08 10:44 | 37.74864 | -5.35506 | 21912 ft | 442 kts | 77° |
| 2026-05-08 10:45 | 37.75608 | -5.31724 | 22365 ft | 445 kts | 77° |
| 2026-05-08 10:45 | 37.76359 | -5.27913 | 22812 ft | 449 kts | 77° |
| 2026-05-08 10:45 | 37.77113 | -5.24074 | 23243 ft | 452 kts | 77° |
| 2026-05-08 10:45 | 37.77870 | -5.20209 | 23649 ft | 455 kts | 77° |
| 2026-05-08 10:46 | 37.78632 | -5.16310 | 24051 ft | 458 kts | 77° |
| 2026-05-08 10:46 | 37.79396 | -5.12392 | 24441 ft | 461 kts | 77° |
| 2026-05-08 10:46 | 37.80161 | -5.08448 | 24822 ft | 463 kts | 77° |
| 2026-05-08 10:46 | 37.80928 | -5.04482 | 25192 ft | 466 kts | 77° |
| 2026-05-08 10:47 | 37.81698 | -5.00496 | 25560 ft | 468 kts | 77° |
| 2026-05-08 10:47 | 37.82464 | -4.96536 | 25898 ft | 471 kts | 77° |
| 2026-05-08 10:47 | 37.83250 | -4.92452 | 26239 ft | 473 kts | 77° |
| 2026-05-08 10:47 | 37.84027 | -4.88401 | 26563 ft | 475 kts | 77° |
| 2026-05-08 10:48 | 37.84702 | -4.84355 | 26876 ft | 477 kts | 83° |
| 2026-05-08 10:48 | 37.85019 | -4.80180 | 27172 ft | 478 kts | 87° |
| 2026-05-08 10:48 | 37.85278 | -4.75978 | 27455 ft | 480 kts | 87° |
| 2026-05-08 10:48 | 37.85534 | -4.71758 | 27750 ft | 482 kts | 87° |
| 2026-05-08 10:49 | 37.85793 | -4.67520 | 28029 ft | 484 kts | 87° |
| 2026-05-08 10:49 | 37.86053 | -4.63262 | 28311 ft | 486 kts | 87° |
| 2026-05-08 10:49 | 37.86313 | -4.58985 | 28571 ft | 488 kts | 88° |
| 2026-05-08 10:49 | 37.86574 | -4.54698 | 28823 ft | 490 kts | 88° |
| 2026-05-08 10:50 | 37.86836 | -4.50389 | 29065 ft | 492 kts | 88° |
| 2026-05-08 10:50 | 37.87096 | -4.46067 | 29286 ft | 494 kts | 88° |
| 2026-05-08 10:50 | 37.87356 | -4.41729 | 29512 ft | 495 kts | 88° |
| 2026-05-08 10:50 | 37.87615 | -4.37398 | 29827 ft | 494 kts | 88° |
| 2026-05-08 10:51 | 37.87871 | -4.33062 | 30134 ft | 493 kts | 88° |
| 2026-05-08 10:51 | 37.88124 | -4.28743 | 30418 ft | 492 kts | 88° |
| 2026-05-08 10:51 | 37.88374 | -4.24423 | 30704 ft | 492 kts | 88° |
| 2026-05-08 10:51 | 37.88622 | -4.20106 | 30993 ft | 491 kts | 88° |
| 2026-05-08 10:52 | 37.88866 | -4.15794 | 31287 ft | 491 kts | 88° |
| 2026-05-08 10:52 | 37.89107 | -4.11491 | 31585 ft | 490 kts | 88° |
| 2026-05-08 10:52 | 37.89349 | -4.07186 | 31868 ft | 489 kts | 88° |
| 2026-05-08 10:52 | 37.89590 | -4.02895 | 32158 ft | 489 kts | 88° |
| 2026-05-08 10:53 | 37.89829 | -3.98605 | 32444 ft | 488 kts | 88° |
| 2026-05-08 10:53 | 37.90067 | -3.94326 | 32723 ft | 487 kts | 88° |
| 2026-05-08 10:53 | 37.90304 | -3.90046 | 33003 ft | 487 kts | 88° |
| 2026-05-08 10:53 | 37.90541 | -3.85774 | 33280 ft | 486 kts | 88° |
| 2026-05-08 10:54 | 37.90778 | -3.81505 | 33556 ft | 485 kts | 88° |
| 2026-05-08 10:54 | 37.91009 | -3.77243 | 33822 ft | 485 kts | 88° |
| 2026-05-08 10:54 | 37.91233 | -3.72989 | 34097 ft | 484 kts | 88° |
| 2026-05-08 10:54 | 37.91456 | -3.68736 | 34367 ft | 484 kts | 88° |
| 2026-05-08 10:55 | 37.91677 | -3.64485 | 34635 ft | 483 kts | 88° |
| 2026-05-08 10:55 | 37.91898 | -3.60240 | 34886 ft | 483 kts | 88° |
| 2026-05-08 10:55 | 37.92121 | -3.55993 | 35119 ft | 483 kts | 88° |
| 2026-05-08 10:55 | 37.92343 | -3.51750 | 35340 ft | 483 kts | 88° |
| 2026-05-08 10:56 | 37.92566 | -3.47505 | 35558 ft | 483 kts | 88° |
| 2026-05-08 10:56 | 37.92789 | -3.43255 | 35774 ft | 483 kts | 88° |
| 2026-05-08 10:56 | 37.93010 | -3.39065 | 35983 ft | 483 kts | 88° |
| 2026-05-08 10:56 | 37.93233 | -3.34765 | 36195 ft | 483 kts | 89° |
| 2026-05-08 10:57 | 37.93452 | -3.30523 | 36390 ft | 483 kts | 89° |
| 2026-05-08 10:57 | 37.93669 | -3.26273 | 36564 ft | 483 kts | 89° |
| 2026-05-08 10:57 | 37.94097 | -3.17801 | 37057 ft | 479 kts | 89° |
| 2026-05-08 10:58 | 37.94307 | -3.13611 | 37300 ft | 477 kts | 89° |
| 2026-05-08 10:58 | 37.94509 | -3.09480 | 37484 ft | 476 kts | 89° |
| 2026-05-08 10:58 | 37.94710 | -3.05292 | 37643 ft | 476 kts | 89° |
| 2026-05-08 10:58 | 37.94911 | -3.01107 | 37781 ft | 476 kts | 89° |
| 2026-05-08 10:59 | 37.95113 | -2.96914 | 37934 ft | 476 kts | 89° |
| 2026-05-08 10:59 | 37.95314 | -2.92715 | 38006 ft | 478 kts | 89° |
| 2026-05-08 10:59 | 37.95714 | -2.84293 | 38009 ft | 479 kts | 89° |
| 2026-05-08 11:00 | 37.96113 | -2.75859 | 38007 ft | 479 kts | 90° |
| 2026-05-08 11:00 | 37.96497 | -2.67423 | 38008 ft | 480 kts | 90° |
| 2026-05-08 11:01 | 37.96908 | -2.58970 | 38008 ft | 481 kts | 86° |
| 2026-05-08 11:01 | 37.98654 | -2.50773 | 38011 ft | 486 kts | 66° |
| 2026-05-08 11:02 | 38.04701 | -2.40523 | 38018 ft | 487 kts | 46° |
| 2026-05-08 11:03 | 38.09364 | -2.34285 | 38032 ft | 487 kts | 46° |
| 2026-05-08 11:03 | 38.14014 | -2.28024 | 38043 ft | 488 kts | 46° |
| 2026-05-08 11:04 | 38.18669 | -2.21744 | 38048 ft | 488 kts | 46° |
| 2026-05-08 11:04 | 38.23093 | -2.15203 | 38050 ft | 488 kts | 51° |
| 2026-05-08 11:05 | 38.27304 | -2.08417 | 38055 ft | 489 kts | 51° |
| 2026-05-08 11:05 | 38.31509 | -2.01611 | 38056 ft | 489 kts | 52° |
| 2026-05-08 11:06 | 38.35707 | -1.94791 | 38054 ft | 490 kts | 52° |
| 2026-05-08 11:06 | 38.39903 | -1.87959 | 38060 ft | 489 kts | 52° |
| 2026-05-08 11:07 | 38.44072 | -1.81187 | 38057 ft | 488 kts | 52° |
| 2026-05-08 11:07 | 38.48261 | -1.74372 | 38057 ft | 488 kts | 52° |
| 2026-05-08 11:08 | 38.52438 | -1.67550 | 38057 ft | 487 kts | 52° |
| 2026-05-08 11:08 | 38.56599 | -1.60730 | 38053 ft | 486 kts | 52° |
| 2026-05-08 11:09 | 38.60754 | -1.53912 | 38055 ft | 486 kts | 52° |
| 2026-05-08 11:09 | 38.64910 | -1.47085 | 38056 ft | 486 kts | 52° |
| 2026-05-08 11:10 | 38.69054 | -1.40254 | 38060 ft | 485 kts | 52° |
| 2026-05-08 11:10 | 38.73183 | -1.33430 | 38058 ft | 484 kts | 52° |
| 2026-05-08 11:11 | 38.77302 | -1.26607 | 38057 ft | 484 kts | 52° |
| 2026-05-08 11:11 | 38.81417 | -1.19796 | 38054 ft | 483 kts | 52° |
| 2026-05-08 11:12 | 38.85524 | -1.12988 | 38054 ft | 482 kts | 52° |
| 2026-05-08 11:12 | 38.89612 | -1.06178 | 38051 ft | 482 kts | 52° |
| 2026-05-08 11:13 | 38.93704 | -0.99358 | 38051 ft | 482 kts | 52° |
| 2026-05-08 11:13 | 38.97094 | -0.93687 | 38053 ft | 481 kts | 53° |
| 2026-05-08 11:14 | 39.01166 | -0.86857 | 38050 ft | 481 kts | 53° |
| 2026-05-08 11:14 | 39.05911 | -0.78947 | 38048 ft | 480 kts | 50° |
| 2026-05-08 11:15 | 39.10773 | -0.73093 | 38046 ft | 479 kts | 38° |
| 2026-05-08 11:15 | 39.15079 | -0.68535 | 38043 ft | 478 kts | 39° |
| 2026-05-08 11:16 | 39.20203 | -0.63070 | 38039 ft | 478 kts | 39° |
| 2026-05-08 11:16 | 39.25321 | -0.57600 | 38038 ft | 478 kts | 39° |
| 2026-05-08 11:17 | 39.30462 | -0.52158 | 38041 ft | 478 kts | 37° |
| 2026-05-08 11:17 | 39.35559 | -0.47188 | 38045 ft | 478 kts | 35° |
| 2026-05-08 11:18 | 39.40930 | -0.42108 | 38047 ft | 478 kts | 36° |
| 2026-05-08 11:18 | 39.46262 | -0.36978 | 38047 ft | 478 kts | 36° |
| 2026-05-08 11:19 | 39.51527 | -0.31820 | 38046 ft | 478 kts | 36° |
| 2026-05-08 11:19 | 39.56825 | -0.26620 | 38045 ft | 477 kts | 36° |
| 2026-05-08 11:20 | 39.62123 | -0.21432 | 38044 ft | 477 kts | 36° |
| 2026-05-08 11:20 | 39.67414 | -0.16238 | 38040 ft | 477 kts | 36° |
| 2026-05-08 11:21 | 39.72700 | -0.11026 | 38040 ft | 477 kts | 36° |
| 2026-05-08 11:21 | 39.77975 | -0.05818 | 38040 ft | 477 kts | 36° |
| 2026-05-08 11:22 | 39.83214 | -0.00537 | 38036 ft | 477 kts | 41° |
| 2026-05-08 11:22 | 39.87825 | 0.05668 | 38041 ft | 477 kts | 46° |
| 2026-05-08 11:23 | 39.92358 | 0.11978 | 38044 ft | 477 kts | 47° |
| 2026-05-08 11:23 | 39.96890 | 0.18290 | 38045 ft | 477 kts | 47° |
| 2026-05-08 11:24 | 40.01420 | 0.24609 | 38043 ft | 476 kts | 47° |
| 2026-05-08 11:24 | 40.05943 | 0.30928 | 38041 ft | 476 kts | 47° |
| 2026-05-08 11:25 | 40.10466 | 0.37254 | 38041 ft | 476 kts | 47° |
| 2026-05-08 11:25 | 40.14952 | 0.43545 | 38041 ft | 476 kts | 47° |
| 2026-05-08 11:26 | 40.19466 | 0.49882 | 38041 ft | 476 kts | 46° |
| 2026-05-08 11:26 | 40.23978 | 0.56230 | 38043 ft | 476 kts | 47° |
| 2026-05-08 11:27 | 40.28476 | 0.62593 | 38044 ft | 476 kts | 47° |
| 2026-05-08 11:27 | 40.32971 | 0.68968 | 38043 ft | 476 kts | 47° |
| 2026-05-08 11:28 | 40.37469 | 0.75334 | 38043 ft | 476 kts | 46° |
| 2026-05-08 11:28 | 40.41966 | 0.81709 | 38043 ft | 476 kts | 46° |
| 2026-05-08 11:29 | 40.46454 | 0.88096 | 38043 ft | 475 kts | 47° |
| 2026-05-08 11:29 | 40.50930 | 0.94491 | 38040 ft | 475 kts | 47° |
| 2026-05-08 11:30 | 40.55397 | 1.00898 | 38039 ft | 475 kts | 47° |
| 2026-05-08 11:30 | 40.59865 | 1.07308 | 38036 ft | 475 kts | 47° |
| 2026-05-08 11:31 | 40.64327 | 1.13722 | 38036 ft | 475 kts | 47° |
| 2026-05-08 11:31 | 40.68785 | 1.20155 | 38036 ft | 475 kts | 46° |
| 2026-05-08 11:32 | 40.73247 | 1.26585 | 38034 ft | 475 kts | 46° |
| 2026-05-08 11:32 | 40.77708 | 1.33017 | 38035 ft | 475 kts | 46° |
| 2026-05-08 11:33 | 40.82130 | 1.39430 | 38032 ft | 475 kts | 47° |
| 2026-05-08 11:33 | 40.86574 | 1.45897 | 38032 ft | 475 kts | 47° |
| 2026-05-08 11:34 | 40.91018 | 1.52361 | 38035 ft | 475 kts | 47° |
| 2026-05-08 11:34 | 40.95453 | 1.58836 | 38034 ft | 475 kts | 47° |
| 2026-05-08 11:35 | 40.99888 | 1.65320 | 38035 ft | 475 kts | 47° |
| 2026-05-08 11:35 | 41.04324 | 1.71814 | 38037 ft | 475 kts | 46° |
| 2026-05-08 11:36 | 41.08753 | 1.78310 | 38038 ft | 475 kts | 47° |
| 2026-05-08 11:36 | 41.13173 | 1.84809 | 38040 ft | 474 kts | 47° |
| 2026-05-08 11:37 | 41.17594 | 1.91320 | 38043 ft | 475 kts | 47° |
| 2026-05-08 11:37 | 41.22004 | 1.97840 | 38043 ft | 474 kts | 47° |
| 2026-05-08 11:38 | 41.26404 | 2.04369 | 38039 ft | 474 kts | 46° |
| 2026-05-08 11:38 | 41.30204 | 2.11508 | 38036 ft | 475 kts | 63° |
| 2026-05-08 11:39 | 41.32341 | 2.19792 | 38031 ft | 474 kts | 77° |
| 2026-05-08 11:39 | 41.33848 | 2.28342 | 38027 ft | 475 kts | 77° |
| 2026-05-08 11:40 | 41.35382 | 2.36891 | 38029 ft | 475 kts | 73° |
| 2026-05-08 11:40 | 41.36686 | 2.40918 | 38032 ft | 474 kts | 57° |
| 2026-05-08 11:40 | 41.38491 | 2.44578 | 38027 ft | 473 kts | 55° |
| 2026-05-08 11:41 | 41.42177 | 2.51841 | 38025 ft | 473 kts | 54° |
| 2026-05-08 11:41 | 41.45876 | 2.59113 | 38021 ft | 474 kts | 54° |
| 2026-05-08 11:42 | 41.49555 | 2.66411 | 38020 ft | 474 kts | 55° |
| 2026-05-08 11:42 | 41.53225 | 2.73724 | 38021 ft | 475 kts | 55° |
| 2026-05-08 11:43 | 41.56894 | 2.81050 | 38026 ft | 475 kts | 55° |
| 2026-05-08 11:43 | 41.60565 | 2.88379 | 38027 ft | 475 kts | 54° |
| 2026-05-08 11:44 | 41.64241 | 2.95710 | 38027 ft | 475 kts | 55° |
| 2026-05-08 11:44 | 41.67899 | 3.03059 | 38029 ft | 474 kts | 55° |
| 2026-05-08 11:45 | 41.71530 | 3.10440 | 38026 ft | 475 kts | 55° |
| 2026-05-08 11:45 | 41.75133 | 3.17865 | 38034 ft | 476 kts | 56° |
| 2026-05-08 11:46 | 41.78723 | 3.25301 | 38032 ft | 476 kts | 55° |
| 2026-05-08 11:46 | 41.82325 | 3.32738 | 38033 ft | 475 kts | 55° |
| 2026-05-08 11:47 | 41.85901 | 3.40127 | 38036 ft | 476 kts | 55° |
| 2026-05-08 11:47 | 41.89493 | 3.47582 | 38039 ft | 475 kts | 55° |
| 2026-05-08 11:48 | 41.93077 | 3.55049 | 38038 ft | 476 kts | 55° |
| 2026-05-08 11:48 | 41.96661 | 3.62514 | 38039 ft | 475 kts | 55° |
| 2026-05-08 11:49 | 42.00241 | 3.69977 | 38038 ft | 475 kts | 55° |
| 2026-05-08 11:49 | 42.03809 | 3.77447 | 38036 ft | 475 kts | 55° |
| 2026-05-08 11:50 | 42.07363 | 3.84932 | 38033 ft | 474 kts | 55° |
| 2026-05-08 11:50 | 42.10919 | 3.92412 | 38031 ft | 474 kts | 55° |
| 2026-05-08 11:51 | 42.14453 | 3.99869 | 38032 ft | 474 kts | 55° |
| 2026-05-08 11:51 | 42.18000 | 4.07376 | 38027 ft | 475 kts | 55° |
| 2026-05-08 11:52 | 42.21549 | 4.14892 | 38029 ft | 475 kts | 55° |
| 2026-05-08 11:52 | 42.25084 | 4.22424 | 38030 ft | 475 kts | 56° |
| 2026-05-08 11:53 | 42.28614 | 4.29959 | 38037 ft | 475 kts | 56° |
| 2026-05-08 11:53 | 42.32152 | 4.37502 | 38043 ft | 475 kts | 56° |
| 2026-05-08 11:54 | 42.35674 | 4.45055 | 38049 ft | 475 kts | 56° |
| 2026-05-08 11:54 | 42.39192 | 4.52619 | 38051 ft | 475 kts | 56° |
| 2026-05-08 11:55 | 42.42703 | 4.60183 | 38052 ft | 474 kts | 56° |
| 2026-05-08 11:55 | 42.46211 | 4.67740 | 38050 ft | 474 kts | 56° |
| 2026-05-08 11:56 | 42.49686 | 4.75255 | 38046 ft | 473 kts | 56° |
| 2026-05-08 11:56 | 42.53172 | 4.82814 | 38040 ft | 473 kts | 56° |
| 2026-05-08 11:57 | 42.56642 | 4.90384 | 38035 ft | 472 kts | 56° |
| 2026-05-08 11:57 | 42.60118 | 4.97959 | 38032 ft | 472 kts | 56° |
| 2026-05-08 11:58 | 42.63584 | 5.05528 | 38031 ft | 472 kts | 56° |
| 2026-05-08 11:58 | 42.67042 | 5.13116 | 38030 ft | 472 kts | 56° |
| 2026-05-08 11:59 | 42.72220 | 5.24516 | 38030 ft | 472 kts | 56° |
| 2026-05-08 11:59 | 42.75672 | 5.32123 | 38035 ft | 473 kts | 56° |
| 2026-05-08 12:00 | 42.79124 | 5.39737 | 38033 ft | 473 kts | 56° |
| 2026-05-08 12:00 | 42.82568 | 5.47362 | 38035 ft | 472 kts | 56° |
| 2026-05-08 12:01 | 42.85996 | 5.54999 | 38037 ft | 472 kts | 57° |
| 2026-05-08 12:01 | 42.88842 | 5.61351 | 38039 ft | 472 kts | 57° |
| 2026-05-08 12:02 | 42.92269 | 5.68989 | 38037 ft | 472 kts | 57° |
| 2026-05-08 12:02 | 42.95688 | 5.76641 | 38040 ft | 472 kts | 57° |
| 2026-05-08 12:03 | 42.99097 | 5.84308 | 38042 ft | 472 kts | 57° |
| 2026-05-08 12:03 | 43.02503 | 5.91979 | 38044 ft | 472 kts | 57° |
| 2026-05-08 12:04 | 43.05898 | 5.99654 | 38044 ft | 472 kts | 57° |
| 2026-05-08 12:04 | 43.09291 | 6.07333 | 38043 ft | 471 kts | 57° |
| 2026-05-08 12:05 | 43.12678 | 6.15006 | 38043 ft | 470 kts | 57° |
| 2026-05-08 12:05 | 43.16052 | 6.22676 | 38041 ft | 470 kts | 58° |
| 2026-05-08 12:06 | 43.19417 | 6.30358 | 38042 ft | 470 kts | 58° |
| 2026-05-08 12:06 | 43.22755 | 6.37985 | 38042 ft | 470 kts | 58° |
| 2026-05-08 12:07 | 43.26111 | 6.45684 | 38042 ft | 470 kts | 58° |
| 2026-05-08 12:07 | 43.29461 | 6.53387 | 38041 ft | 470 kts | 58° |
| 2026-05-08 12:08 | 43.32798 | 6.61093 | 38039 ft | 469 kts | 58° |
| 2026-05-08 12:08 | 43.36128 | 6.68793 | 38034 ft | 469 kts | 58° |
| 2026-05-08 12:09 | 43.39449 | 6.76492 | 38031 ft | 468 kts | 58° |
| 2026-05-08 12:09 | 43.42772 | 6.84208 | 38030 ft | 469 kts | 58° |
| 2026-05-08 12:10 | 43.46087 | 6.91933 | 38034 ft | 469 kts | 58° |
| 2026-05-08 12:10 | 43.49403 | 6.99663 | 38035 ft | 469 kts | 58° |
| 2026-05-08 12:11 | 43.52711 | 7.07405 | 38036 ft | 469 kts | 58° |
| 2026-05-08 12:11 | 43.56014 | 7.15166 | 38041 ft | 469 kts | 59° |
| 2026-05-08 12:12 | 43.59310 | 7.22937 | 38043 ft | 469 kts | 59° |
| 2026-05-08 12:12 | 43.62607 | 7.30711 | 38041 ft | 469 kts | 59° |
| 2026-05-08 12:13 | 43.65872 | 7.38501 | 38043 ft | 469 kts | 60° |
| 2026-05-08 12:13 | 43.69026 | 7.46386 | 38040 ft | 468 kts | 61° |
| 2026-05-08 12:14 | 43.72127 | 7.54301 | 38042 ft | 468 kts | 61° |
| 2026-05-08 12:14 | 43.75251 | 7.62198 | 38041 ft | 468 kts | 59° |
| 2026-05-08 12:15 | 43.78935 | 7.69601 | 38045 ft | 467 kts | 54° |
| 2026-05-08 12:15 | 43.82693 | 7.76947 | 38045 ft | 467 kts | 54° |
| 2026-05-08 12:16 | 43.86449 | 7.84307 | 38043 ft | 468 kts | 53° |
| 2026-05-08 12:16 | 43.90201 | 7.91670 | 38040 ft | 467 kts | 53° |
| 2026-05-08 12:17 | 43.93950 | 7.99042 | 38040 ft | 468 kts | 53° |
| 2026-05-08 12:17 | 43.97697 | 8.06423 | 38046 ft | 468 kts | 54° |
| 2026-05-08 12:18 | 44.01433 | 8.13823 | 38048 ft | 468 kts | 54° |
| 2026-05-08 12:18 | 44.04951 | 8.21424 | 38041 ft | 468 kts | 64° |
| 2026-05-08 12:19 | 44.06973 | 8.30002 | 38039 ft | 468 kts | 77° |
| 2026-05-08 12:19 | 44.08442 | 8.38778 | 38046 ft | 469 kts | 77° |
| 2026-05-08 12:20 | 44.09923 | 8.47617 | 38057 ft | 469 kts | 77° |
| 2026-05-08 12:20 | 44.11408 | 8.56455 | 38065 ft | 469 kts | 77° |
| 2026-05-08 12:21 | 44.12889 | 8.65292 | 38065 ft | 469 kts | 77° |
| 2026-05-08 12:21 | 44.14357 | 8.74143 | 38064 ft | 469 kts | 77° |
| 2026-05-08 12:22 | 44.15816 | 8.82992 | 38059 ft | 469 kts | 77° |
| 2026-05-08 12:22 | 44.17260 | 8.91823 | 38056 ft | 469 kts | 77° |
| 2026-05-08 12:23 | 44.18702 | 9.00674 | 38055 ft | 468 kts | 77° |
| 2026-05-08 12:23 | 44.20411 | 9.09410 | 38034 ft | 466 kts | 71° |
| 2026-05-08 12:24 | 44.21431 | 9.13693 | 37480 ft | 465 kts | 71° |
| 2026-05-08 12:24 | 44.22449 | 9.17974 | 36765 ft | 465 kts | 72° |
| 2026-05-08 12:24 | 44.23462 | 9.22242 | 36068 ft | 463 kts | 72° |
| 2026-05-08 12:24 | 44.24473 | 9.26509 | 35295 ft | 464 kts | 72° |
| 2026-05-08 12:25 | 44.25486 | 9.30800 | 34387 ft | 468 kts | 72° |
| 2026-05-08 12:25 | 44.26502 | 9.35126 | 33507 ft | 470 kts | 73° |
| 2026-05-08 12:25 | 44.27515 | 9.39460 | 32647 ft | 470 kts | 73° |
| 2026-05-08 12:25 | 44.28527 | 9.43796 | 31756 ft | 471 kts | 73° |
| 2026-05-08 12:26 | 44.29541 | 9.48139 | 30831 ft | 471 kts | 73° |
| 2026-05-08 12:26 | 44.30558 | 9.52492 | 29861 ft | 471 kts | 73° |
| 2026-05-08 12:26 | 44.31571 | 9.56845 | 28827 ft | 472 kts | 73° |
| 2026-05-08 12:26 | 44.32609 | 9.61203 | 27735 ft | 474 kts | 72° |
| 2026-05-08 12:27 | 44.33750 | 9.65494 | 26948 ft | 469 kts | 70° |
| 2026-05-08 12:27 | 44.34967 | 9.69697 | 26177 ft | 464 kts | 68° |
| 2026-05-08 12:27 | 44.36213 | 9.73821 | 25403 ft | 459 kts | 68° |
| 2026-05-08 12:27 | 44.37453 | 9.77903 | 24660 ft | 454 kts | 68° |
| 2026-05-08 12:28 | 44.38666 | 9.81954 | 23904 ft | 449 kts | 68° |
| 2026-05-08 12:28 | 44.39845 | 9.85978 | 23170 ft | 445 kts | 69° |
| 2026-05-08 12:28 | 44.40992 | 9.89974 | 22478 ft | 440 kts | 69° |
| 2026-05-08 12:28 | 44.42114 | 9.93934 | 21826 ft | 436 kts | 69° |
| 2026-05-08 12:29 | 44.43219 | 9.97847 | 21165 ft | 431 kts | 69° |
| 2026-05-08 12:29 | 44.44315 | 10.01723 | 20538 ft | 426 kts | 69° |
| 2026-05-08 12:29 | 44.45400 | 10.05554 | 19917 ft | 422 kts | 69° |
| 2026-05-08 12:29 | 44.46696 | 10.09221 | 19315 ft | 418 kts | 58° |
| 2026-05-08 12:30 | 44.48409 | 10.12467 | 18718 ft | 413 kts | 48° |
| 2026-05-08 12:30 | 44.50492 | 10.15211 | 18136 ft | 410 kts | 38° |
| 2026-05-08 12:30 | 44.52862 | 10.17371 | 17568 ft | 405 kts | 27° |
| 2026-05-08 12:30 | 44.55446 | 10.18912 | 16993 ft | 401 kts | 18° |
| 2026-05-08 12:31 | 44.58120 | 10.19964 | 16417 ft | 398 kts | 15° |
| 2026-05-08 12:31 | 44.60776 | 10.20985 | 15846 ft | 394 kts | 15° |
| 2026-05-08 12:31 | 44.63374 | 10.21992 | 15284 ft | 391 kts | 15° |
| 2026-05-08 12:31 | 44.65981 | 10.23008 | 14714 ft | 387 kts | 15° |
| 2026-05-08 12:32 | 44.68563 | 10.24017 | 14137 ft | 384 kts | 15° |
| 2026-05-08 12:32 | 44.71126 | 10.25013 | 13558 ft | 380 kts | 15° |
| 2026-05-08 12:32 | 44.73661 | 10.25993 | 12978 ft | 376 kts | 15° |
| 2026-05-08 12:32 | 44.76170 | 10.26962 | 12383 ft | 372 kts | 15° |
| 2026-05-08 12:33 | 44.78658 | 10.27929 | 11767 ft | 369 kts | 15° |
| 2026-05-08 12:33 | 44.81156 | 10.28672 | 11162 ft | 366 kts | 7° |
| 2026-05-08 12:33 | 44.83685 | 10.28817 | 10540 ft | 362 kts | 357° |
| 2026-05-08 12:33 | 44.86178 | 10.28383 | 10064 ft | 360 kts | 350° |
| 2026-05-08 12:34 | 44.88610 | 10.27791 | 9815 ft | 346 kts | 350° |
| 2026-05-08 12:34 | 44.90927 | 10.27230 | 9687 ft | 330 kts | 351° |
| 2026-05-08 12:34 | 44.93042 | 10.26727 | 9567 ft | 316 kts | 351° |
| 2026-05-08 12:34 | 44.95072 | 10.26246 | 9471 ft | 302 kts | 351° |
| 2026-05-08 12:35 | 44.96282 | 10.25957 | 9401 ft | 295 kts | 351° |
| 2026-05-08 12:35 | 44.98282 | 10.25479 | 9116 ft | 289 kts | 351° |
| 2026-05-08 12:35 | 45.00264 | 10.25058 | 8740 ft | 287 kts | 356° |
| 2026-05-08 12:35 | 45.02245 | 10.25101 | 8349 ft | 284 kts | 7° |
| 2026-05-08 12:36 | 45.04172 | 10.25671 | 7948 ft | 282 kts | 18° |
| 2026-05-08 12:36 | 45.05976 | 10.26732 | 7545 ft | 280 kts | 28° |
| 2026-05-08 12:36 | 45.07598 | 10.28228 | 7140 ft | 277 kts | 39° |
| 2026-05-08 12:36 | 45.09048 | 10.30011 | 6717 ft | 276 kts | 41° |
| 2026-05-08 12:37 | 45.10485 | 10.31799 | 6300 ft | 274 kts | 41° |
| 2026-05-08 12:37 | 45.11900 | 10.33601 | 5886 ft | 272 kts | 47° |
| 2026-05-08 12:37 | 45.12903 | 10.35831 | 5476 ft | 269 kts | 70° |
| 2026-05-08 12:37 | 45.13239 | 10.38423 | 5087 ft | 267 kts | 85° |
| 2026-05-08 12:38 | 45.13389 | 10.41007 | 5009 ft | 267 kts | 85° |
| 2026-05-08 12:38 | 45.13535 | 10.43568 | 5011 ft | 248 kts | 85° |
| 2026-05-08 12:38 | 45.13668 | 10.45922 | 5018 ft | 230 kts | 85° |
| 2026-05-08 12:38 | 45.13792 | 10.48111 | 5025 ft | 219 kts | 85° |
| 2026-05-08 12:39 | 45.13972 | 10.50240 | 5022 ft | 218 kts | 76° |
| 2026-05-08 12:39 | 45.14508 | 10.52208 | 4978 ft | 217 kts | 59° |
| 2026-05-08 12:39 | 45.15406 | 10.53908 | 4675 ft | 216 kts | 48° |
| 2026-05-08 12:39 | 45.16443 | 10.55450 | 4363 ft | 215 kts | 46° |
| 2026-05-08 12:40 | 45.17493 | 10.56956 | 4093 ft | 214 kts | 45° |
| 2026-05-08 12:40 | 45.18534 | 10.58450 | 4006 ft | 214 kts | 45° |
| 2026-05-08 12:40 | 45.19582 | 10.59955 | 4017 ft | 215 kts | 45° |
| 2026-05-08 12:40 | 45.20633 | 10.61468 | 3924 ft | 215 kts | 45° |
| 2026-05-08 12:41 | 45.21679 | 10.62975 | 3637 ft | 214 kts | 45° |
| 2026-05-08 12:41 | 45.22723 | 10.64476 | 3359 ft | 213 kts | 46° |
| 2026-05-08 12:41 | 45.23760 | 10.65970 | 3093 ft | 211 kts | 46° |
| 2026-05-08 12:41 | 45.24792 | 10.67457 | 3007 ft | 211 kts | 46° |
| 2026-05-08 12:42 | 45.25824 | 10.68946 | 3010 ft | 213 kts | 45° |
| 2026-05-08 12:42 | 45.26864 | 10.70447 | 3007 ft | 213 kts | 46° |
| 2026-05-08 12:42 | 45.27895 | 10.71935 | 3004 ft | 207 kts | 46° |
| 2026-05-08 12:42 | 45.28881 | 10.73359 | 2931 ft | 198 kts | 46° |
| 2026-05-08 12:43 | 45.29830 | 10.74730 | 2721 ft | 193 kts | 46° |
| 2026-05-08 12:43 | 45.30758 | 10.76073 | 2463 ft | 187 kts | 46° |
| 2026-05-08 12:43 | 45.31643 | 10.77353 | 2227 ft | 176 kts | 46° |
| 2026-05-08 12:43 | 45.32477 | 10.78561 | 1997 ft | 166 kts | 46° |
| 2026-05-08 12:44 | 45.33259 | 10.79693 | 1801 ft | 153 kts | 46° |
| 2026-05-08 12:44 | 45.33976 | 10.80734 | 1594 ft | 143 kts | 46° |
| 2026-05-08 12:44 | 45.34657 | 10.81730 | 1360 ft | 139 kts | 45° |
| 2026-05-08 12:44 | 45.35328 | 10.82694 | 1155 ft | 136 kts | 46° |
| 2026-05-08 12:45 | 45.35985 | 10.83653 | 991 ft | 136 kts | 46° |
| 2026-05-08 12:45 | 45.36645 | 10.84609 | 811 ft | 134 kts | 46° |
| 2026-05-08 12:45 | 45.37300 | 10.85563 | 639 ft | 136 kts | 46° |
| 2026-05-08 12:45 | 45.37961 | 10.86515 | 468 ft | 135 kts | 45° |
| 2026-05-08 12:46 | 45.38608 | 10.87450 | 305 ft | 134 kts | 45° |
| 2026-05-08 12:46 | 45.39239 | 10.88374 | 234 ft | 114 kts | 46° |
| 2026-05-08 12:46 | 45.39673 | 10.88999 | 240 ft | 64 kts | 45° |
| 2026-05-08 12:46 | 45.39864 | 10.89278 | 240 ft | 17 kts | 46° |
| 2026-05-08 12:47 | 45.39950 | 10.89403 | 242 ft | 18 kts | 46° |
| 2026-05-08 12:47 | 45.40037 | 10.89535 | 244 ft | 19 kts | 46° |
| 2026-05-08 12:47 | 45.40132 | 10.89672 | 246 ft | 20 kts | 45° |
| 2026-05-08 12:47 | 45.40233 | 10.89816 | 246 ft | 22 kts | 46° |
| 2026-05-08 12:48 | 45.40293 | 10.90014 | 246 ft | 23 kts | 78° |
| 2026-05-08 12:48 | 45.40330 | 10.90214 | 243 ft | 14 kts | 78° |
| 2026-05-08 12:48 | 45.40363 | 10.90326 | 242 ft | 8 kts | 51° |
| 2026-05-08 12:48 | 45.40393 | 10.90375 | 242 ft | 5 kts | 61° |
| 2026-05-08 12:49 | 45.40378 | 10.90416 | 242 ft | 4 kts | 136° |
| 2026-05-08 12:49 | 45.40358 | 10.90444 | 242 ft | 4 kts | 136° |
| 2026-05-08 12:49 | 45.40348 | 10.90457 | 242 ft | 0 kts | 136° |